Time;durP1;ratioP1;P1;durP2;ratioP2;P2;SDS_P1;SDS_P2;PMS_P1;PMS_P2;Temp;Humidity;BMP_temperature;BMP_pressure;BME280_temperature;BME280_humidity;BME280_pressure;Samples;Min_cycle;Max_cycle;Signal;HPM_P1;HPM_P2
2022/03/09 00:01:38;;;;;;;12.27;5.17;;;3.30;53.60;;;;;;4954264;29;20423;-76
2022/03/09 00:04:04;;;;;;;11.67;4.90;;;3.30;53.80;;;;;;4936090;29;20499;-76
2022/03/09 00:06:30;;;;;;;10.73;5.70;;;3.20;53.60;;;;;;4937101;29;20527;-76
2022/03/09 00:08:56;;;;;;;10.00;4.70;;;3.10;53.80;;;;;;4937026;29;20428;-78
2022/03/09 00:11:21;;;;;;;14.47;5.20;;;3.00;54.10;;;;;;4937645;29;20023;-78
2022/03/09 00:13:47;;;;;;;11.90;5.17;;;3.10;54.00;;;;;;4954414;29;20550;-79
2022/03/09 00:16:13;;;;;;;10.90;5.07;;;3.20;54.00;;;;;;4953061;28;20051;-79
2022/03/09 00:18:38;;;;;;;9.93;4.90;;;3.10;54.50;;;;;;4938044;29;20035;-78
2022/03/09 00:21:04;;;;;;;10.70;4.50;;;3.20;54.30;;;;;;4937625;29;20028;-78
2022/03/09 00:23:29;;;;;;;12.80;4.50;;;3.20;54.50;;;;;;4929410;29;20055;-76
2022/03/09 00:25:55;;;;;;;10.10;4.70;;;3.20;54.70;;;;;;4918555;29;20457;-76
2022/03/09 00:28:21;;;;;;;8.90;4.60;;;3.10;54.50;;;;;;4934873;29;20038;-77
2022/03/09 00:30:46;;;;;;;7.67;4.30;;;3.20;55.60;;;;;;4918322;29;20038;-77
2022/03/09 00:33:12;;;;;;;7.60;4.10;;;3.20;54.50;;;;;;4923632;29;20027;-79
2022/03/09 00:35:38;;;;;;;11.43;5.13;;;3.20;54.50;;;;;;4937764;29;20023;-80
2022/03/09 00:38:05;;;;;;;9.20;4.87;;;3.20;54.50;;;;;;4937605;29;20062;-79
2022/03/09 00:40:30;;;;;;;10.73;4.60;;;3.20;55.10;;;;;;4941639;29;20034;-79
2022/03/09 00:42:57;;;;;;;10.37;4.47;;;3.20;55.00;;;;;;4940535;29;20031;-75
2022/03/09 00:45:22;;;;;;;8.73;5.37;;;3.20;55.00;;;;;;4927488;29;20031;-75
2022/03/09 00:47:48;;;;;;;13.30;4.93;;;3.20;55.10;;;;;;4920827;29;20099;-75
2022/03/09 00:50:14;;;;;;;12.03;4.80;;;3.10;55.00;;;;;;4920487;29;20414;-77
2022/03/09 00:52:39;;;;;;;10.43;4.60;;;3.10;55.60;;;;;;4921390;29;20481;-76
2022/03/09 00:55:07;;;;;;;8.20;4.97;;;3.10;55.70;;;;;;4920937;29;20036;-77
2022/03/09 00:57:32;;;;;;;9.03;4.67;;;3.10;55.80;;;;;;4921206;29;20032;-76
2022/03/09 00:59:58;;;;;;;8.53;4.70;;;3.10;55.80;;;;;;4921406;29;20031;-77
2022/03/09 01:02:24;;;;;;;9.67;4.97;;;3.00;55.80;;;;;;4921593;29;20091;-76
2022/03/09 01:04:49;;;;;;;12.30;5.00;;;3.00;56.20;;;;;;4948947;29;20031;-76
2022/03/09 01:07:15;;;;;;;8.30;4.33;;;3.00;55.90;;;;;;4939596;29;20531;-75
2022/03/09 01:09:41;;;;;;;8.40;4.67;;;2.90;55.90;;;;;;4939525;29;20520;-78
2022/03/09 01:12:07;;;;;;;10.57;5.00;;;2.80;56.50;;;;;;4956560;29;20027;-79
2022/03/09 01:14:33;;;;;;;11.17;4.93;;;2.80;56.70;;;;;;4940616;28;20043;-78
2022/03/09 01:16:59;;;;;;;10.27;4.90;;;2.70;56.60;;;;;;4940786;29;20108;-79
2022/03/09 01:19:24;;;;;;;11.17;4.73;;;2.70;56.80;;;;;;4940804;29;20027;-78
2022/03/09 01:21:50;;;;;;;8.67;4.50;;;2.60;57.00;;;;;;4951088;29;20032;-78
2022/03/09 01:24:15;;;;;;;9.97;4.57;;;2.60;57.30;;;;;;4937973;29;20065;-78
2022/03/09 01:26:42;;;;;;;8.80;4.33;;;2.70;57.60;;;;;;4938798;29;20119;-78
2022/03/09 01:29:09;;;;;;;9.03;4.40;;;2.70;57.70;;;;;;4920852;29;20479;-78
2022/03/09 01:31:35;;;;;;;7.80;4.17;;;2.70;57.50;;;;;;4938147;29;20024;-78
2022/03/09 01:34:01;;;;;;;9.20;4.67;;;2.80;57.50;;;;;;4941623;29;20078;-80
2022/03/09 01:36:26;;;;;;;8.47;4.40;;;2.80;57.90;;;;;;4940326;29;20054;-78
2022/03/09 01:38:52;;;;;;;7.53;4.43;;;2.80;58.00;;;;;;4940918;29;20023;-77
2022/03/09 01:41:17;;;;;;;9.67;4.67;;;2.80;57.80;;;;;;4956880;29;20082;-76
2022/03/09 01:43:43;;;;;;;9.13;4.53;;;2.70;58.10;;;;;;4940372;29;20063;-77
2022/03/09 01:46:09;;;;;;;10.33;4.77;;;2.60;58.50;;;;;;4956476;29;20035;-77
2022/03/09 01:48:35;;;;;;;8.90;5.03;;;2.50;59.20;;;;;;4939748;29;20528;-78
2022/03/09 01:51:00;;;;;;;10.43;3.97;;;2.50;59.70;;;;;;4956122;28;20592;-79
2022/03/09 01:53:26;;;;;;;8.23;4.40;;;2.50;60.00;;;;;;4957173;29;20092;-78
2022/03/09 01:55:52;;;;;;;9.50;5.13;;;2.50;60.00;;;;;;4957364;29;20508;-77
2022/03/09 01:58:18;;;;;;;8.77;4.70;;;2.50;59.40;;;;;;4956675;29;20053;-77
2022/03/09 02:00:43;;;;;;;9.70;4.53;;;2.40;59.90;;;;;;4940395;29;20031;-77
2022/03/09 02:03:09;;;;;;;7.63;3.97;;;2.40;60.00;;;;;;4939609;29;20540;-77
2022/03/09 02:05:35;;;;;;;9.13;4.70;;;2.30;62.00;;;;;;4939442;29;20096;-77
2022/03/09 02:10:46;;;;;;;8.33;4.87;;;2.10;61.70;;;;;;4957054;29;20033;-77
2022/03/09 02:13:11;;;;;;;8.60;4.80;;;2.20;62.40;;;;;;4956438;29;20031;-77
2022/03/09 02:15:37;;;;;;;10.00;5.10;;;2.10;63.30;;;;;;4939152;29;20062;-77
2022/03/09 02:18:03;;;;;;;11.87;5.53;;;2.00;63.40;;;;;;4939368;29;20035;-79
2022/03/09 02:20:29;;;;;;;9.40;4.87;;;2.00;63.80;;;;;;4939177;29;20114;-78
2022/03/09 02:22:55;;;;;;;10.20;4.80;;;2.00;64.30;;;;;;4939663;29;20123;-78
2022/03/09 02:25:21;;;;;;;9.63;5.13;;;2.10;63.80;;;;;;4939066;29;20038;-78
2022/03/09 02:27:47;;;;;;;9.80;4.77;;;2.10;64.30;;;;;;4956398;29;20058;-79
2022/03/09 02:30:15;;;;;;;10.40;5.10;;;2.10;66.10;;;;;;4938739;29;20051;-79
2022/03/09 02:32:46;;;;;;;11.73;5.37;;;2.00;66.70;;;;;;4956610;29;20028;-78
2022/03/09 02:35:14;;;;;;;12.13;4.73;;;1.90;67.60;;;;;;4938026;29;20093;-79
2022/03/09 02:37:40;;;;;;;8.93;4.97;;;1.90;67.50;;;;;;4939499;29;20033;-81
2022/03/09 02:40:12;;;;;;;8.20;4.87;;;1.90;67.00;;;;;;4939215;29;20031;-78
2022/03/09 02:42:38;;;;;;;12.90;5.00;;;1.90;66.10;;;;;;4939880;29;20534;-78
2022/03/09 02:45:05;;;;;;;7.93;4.70;;;2.00;66.70;;;;;;4938976;29;20070;-77
2022/03/09 02:47:31;;;;;;;9.43;5.20;;;2.00;67.70;;;;;;4938535;29;20401;-80
2022/03/09 02:49:56;;;;;;;10.60;4.97;;;2.10;67.10;;;;;;4955191;29;20019;-80
2022/03/09 02:52:22;;;;;;;11.40;4.97;;;2.00;67.60;;;;;;4955197;29;20464;-80
2022/03/09 02:54:48;;;;;;;11.17;5.03;;;1.90;68.80;;;;;;4938470;29;20096;-77
2022/03/09 02:57:14;;;;;;;11.60;5.63;;;1.80;70.20;;;;;;4955548;29;20106;-77
2022/03/09 02:59:40;;;;;;;11.43;5.00;;;1.80;70.80;;;;;;4956235;29;20027;-77
2022/03/09 03:02:06;;;;;;;11.37;5.13;;;1.80;70.80;;;;;;4954907;28;20480;-80
2022/03/09 03:04:32;;;;;;;10.60;4.87;;;1.80;70.60;;;;;;4939407;29;20036;-79
2022/03/09 03:06:57;;;;;;;10.17;5.03;;;1.70;71.60;;;;;;4938577;29;20034;-79
2022/03/09 03:09:23;;;;;;;9.33;4.50;;;1.70;72.30;;;;;;4937731;29;20038;-77
2022/03/09 03:11:49;;;;;;;11.40;5.13;;;1.60;73.10;;;;;;4938588;29;20031;-78
2022/03/09 03:14:14;;;;;;;10.73;5.20;;;1.50;73.10;;;;;;4938346;29;20400;-76
2022/03/09 03:16:40;;;;;;;11.73;5.57;;;1.40;73.90;;;;;;4938450;29;20051;-77
2022/03/09 03:19:06;;;;;;;12.20;5.63;;;1.50;75.00;;;;;;4938547;29;20031;-78
2022/03/09 03:21:32;;;;;;;12.03;5.60;;;1.40;75.70;;;;;;4939144;29;20034;-78
2022/03/09 03:23:57;;;;;;;10.03;5.47;;;1.30;75.40;;;;;;4939015;29;20481;-77
2022/03/09 03:26:24;;;;;;;11.07;5.50;;;1.30;77.40;;;;;;4938151;29;20031;-77
2022/03/09 03:28:53;;;;;;;11.63;5.33;;;1.40;78.70;;;;;;4937829;29;20027;-77
2022/03/09 03:31:20;;;;;;;13.30;5.43;;;1.30;79.70;;;;;;4938079;29;20059;-77
2022/03/09 03:33:47;;;;;;;14.87;6.13;;;1.30;79.00;;;;;;4955302;29;20035;-77
2022/03/09 03:36:17;;;;;;;12.67;5.60;;;1.30;80.50;;;;;;4938187;29;20031;-78
2022/03/09 03:38:43;;;;;;;12.87;5.37;;;1.30;81.70;;;;;;4955314;29;20528;-78
2022/03/09 03:41:08;;;;;;;10.80;5.73;;;1.40;82.20;;;;;;4955287;29;20058;-79
2022/03/09 03:43:34;;;;;;;11.30;4.87;;;1.50;80.40;;;;;;4938337;29;20035;-78
2022/03/09 03:46:00;;;;;;;10.37;5.40;;;1.50;79.20;;;;;;4938688;29;20063;-78
2022/03/09 03:48:26;;;;;;;12.77;5.47;;;1.60;79.60;;;;;;4954429;29;20223;-78
2022/03/09 03:50:51;;;;;;;11.33;5.33;;;1.50;81.10;;;;;;4954649;29;20046;-78
2022/03/09 03:53:17;;;;;;;10.07;5.27;;;1.50;81.60;;;;;;4937287;29;20114;-78
2022/03/09 03:55:44;;;;;;;11.40;5.20;;;1.50;81.60;;;;;;4937721;29;20023;-78
2022/03/09 03:58:10;;;;;;;12.33;5.87;;;1.40;83.10;;;;;;4954627;28;20031;-78
2022/03/09 04:00:36;;;;;;;13.40;5.03;;;1.30;83.90;;;;;;4955327;29;20468;-77
2022/03/09 04:03:02;;;;;;;10.93;5.53;;;1.30;85.50;;;;;;4954755;29;20162;-78
2022/03/09 04:05:28;;;;;;;12.80;5.77;;;1.30;84.20;;;;;;4937404;29;20046;-77
2022/03/09 04:07:54;;;;;;;9.83;5.30;;;1.20;84.60;;;;;;4937613;29;20033;-77
2022/03/09 04:10:19;;;;;;;11.07;5.23;;;1.20;86.80;;;;;;4953781;29;20023;-78
2022/03/09 04:12:45;;;;;;;13.60;5.53;;;1.20;85.20;;;;;;4939434;29;20118;-77
2022/03/09 04:15:10;;;;;;;10.43;5.13;;;1.10;86.20;;;;;;4940612;29;20059;-77
2022/03/09 04:17:44;;;;;;;11.30;5.27;;;1.00;86.30;;;;;;4941839;29;20042;-77
2022/03/09 04:20:11;;;;;;;10.80;5.50;;;0.90;87.40;;;;;;4941427;29;20460;-78
2022/03/09 04:22:37;;;;;;;10.53;5.27;;;0.90;87.80;;;;;;4958705;29;20028;-77
2022/03/09 04:25:03;;;;;;;13.63;5.53;;;0.80;89.00;;;;;;4942075;29;20495;-77
2022/03/09 04:27:29;;;;;;;13.67;6.03;;;0.80;88.80;;;;;;4940955;29;20607;-77
2022/03/09 04:29:55;;;;;;;8.60;5.30;;;0.70;90.10;;;;;;4940643;29;20070;-78
2022/03/09 04:32:21;;;;;;;11.50;4.80;;;0.60;91.40;;;;;;4958089;29;20027;-77
2022/03/09 04:34:46;;;;;;;10.77;5.50;;;0.40;91.70;;;;;;4945586;29;20042;-77
2022/03/09 04:37:12;;;;;;;10.23;5.07;;;0.40;92.30;;;;;;4957524;28;20035;-77
2022/03/09 04:39:37;;;;;;;15.00;5.60;;;0.40;92.00;;;;;;4977711;28;20023;-77
2022/03/09 04:42:03;;;;;;;12.97;5.47;;;0.20;92.40;;;;;;4960620;28;20034;-77
2022/03/09 04:44:29;;;;;;;13.53;5.40;;;0.30;92.30;;;;;;4977478;28;20086;-77
2022/03/09 04:46:54;;;;;;;10.70;4.77;;;0.20;92.00;;;;;;4960926;28;20035;-77
2022/03/09 04:49:20;;;;;;;12.27;5.30;;;0.20;92.20;;;;;;4959798;28;20173;-78
2022/03/09 04:51:46;;;;;;;15.50;5.53;;;0.20;92.20;;;;;;4960728;28;20031;-79
2022/03/09 04:54:12;;;;;;;12.10;5.43;;;0.20;92.20;;;;;;4959699;28;20117;-78
2022/03/09 04:56:37;;;;;;;10.77;5.27;;;0.20;92.70;;;;;;4960499;28;20031;-78
2022/03/09 04:59:03;;;;;;;10.47;5.27;;;0.10;93.00;;;;;;4960205;28;20053;-78
2022/03/09 05:01:29;;;;;;;12.07;5.40;;;0.10;93.10;;;;;;4976719;28;20047;-78
2022/03/09 05:03:54;;;;;;;12.07;4.83;;;0.10;93.00;;;;;;4958668;28;20023;-78
2022/03/09 05:06:20;;;;;;;13.07;5.27;;;0.00;92.50;;;;;;4959788;28;20077;-78
2022/03/09 05:08:46;;;;;;;11.30;5.50;;;-0.10;92.60;;;;;;4977038;28;20027;-78
2022/03/09 05:11:11;;;;;;;11.33;5.33;;;-0.10;92.60;;;;;;4959437;28;20023;-79
2022/03/09 05:13:37;;;;;;;13.80;5.47;;;-0.10;93.00;;;;;;4959102;28;20464;-79
2022/03/09 05:16:05;;;;;;;9.90;4.93;;;-0.10;93.40;;;;;;4977147;28;20057;-79
2022/03/09 05:18:31;;;;;;;14.33;5.47;;;-0.20;93.50;;;;;;4959331;28;20472;-78
2022/03/09 05:20:57;;;;;;;11.63;5.80;;;-0.20;93.70;;;;;;4959149;28;20023;-78
2022/03/09 05:23:22;;;;;;;11.67;5.73;;;-0.20;94.60;;;;;;4958867;28;20528;-80
2022/03/09 05:25:48;;;;;;;11.50;5.20;;;-0.20;93.80;;;;;;4959360;28;20037;-81
2022/03/09 05:28:13;;;;;;;11.13;5.27;;;-0.30;94.10;;;;;;4960099;28;20031;-80
2022/03/09 05:30:39;;;;;;;12.83;5.47;;;-0.20;94.80;;;;;;4960413;28;20090;-80
2022/03/09 05:33:05;;;;;;;10.27;5.17;;;-0.20;94.10;;;;;;4960056;28;20099;-80
2022/03/09 05:35:30;;;;;;;10.30;5.17;;;-0.10;94.00;;;;;;4960225;28;20561;-80
2022/03/09 05:37:56;;;;;;;13.30;5.47;;;-0.10;94.40;;;;;;4940515;29;20027;-80
2022/03/09 05:40:22;;;;;;;13.17;5.40;;;-0.10;94.00;;;;;;4939989;29;20035;-80
2022/03/09 05:42:47;;;;;;;11.93;4.93;;;-0.10;94.00;;;;;;4940163;29;20038;-80
2022/03/09 05:45:13;;;;;;;10.73;4.90;;;-0.20;93.90;;;;;;4940247;29;20039;-80
2022/03/09 05:47:39;;;;;;;12.83;5.57;;;-0.20;94.00;;;;;;4940658;29;20047;-79
2022/03/09 05:50:05;;;;;;;11.17;5.27;;;-0.30;94.20;;;;;;4957828;29;20074;-79
2022/03/09 05:52:31;;;;;;;10.90;4.93;;;-0.50;94.60;;;;;;4940169;29;20031;-80
2022/03/09 05:54:56;;;;;;;10.17;5.07;;;-0.50;95.60;;;;;;4939688;29;20034;-79
2022/03/09 05:57:22;;;;;;;8.23;4.07;;;-0.50;95.00;;;;;;4956187;29;20087;-79
2022/03/09 05:59:49;;;;;;;11.57;5.00;;;-0.40;94.90;;;;;;4939624;29;20055;-79
2022/03/09 06:02:15;;;;;;;10.90;4.83;;;-0.30;94.60;;;;;;4938777;29;20031;-79
2022/03/09 06:04:42;;;;;;;11.67;5.40;;;-0.30;94.70;;;;;;4940105;29;20038;-80
2022/03/09 06:07:08;;;;;;;11.17;4.90;;;-0.30;94.70;;;;;;4940504;29;20078;-80
2022/03/09 06:09:34;;;;;;;11.53;5.07;;;-0.40;95.30;;;;;;4939924;29;20027;-79
2022/03/09 06:11:59;;;;;;;11.50;5.67;;;-0.50;95.60;;;;;;4940538;29;20090;-79
2022/03/09 06:14:25;;;;;;;11.80;5.07;;;-0.50;96.10;;;;;;4939144;29;20035;-77
2022/03/09 06:16:51;;;;;;;10.40;5.10;;;-0.50;96.00;;;;;;4938658;29;20078;-78
2022/03/09 06:19:17;;;;;;;9.47;4.83;;;-0.50;95.90;;;;;;4938453;29;20028;-78
2022/03/09 06:21:43;;;;;;;9.23;5.07;;;-0.50;96.10;;;;;;4956108;28;20027;-78
2022/03/09 06:24:09;;;;;;;12.33;5.47;;;-0.50;96.20;;;;;;4939864;29;20027;-79
2022/03/09 06:26:38;;;;;;;11.23;5.30;;;-0.50;96.30;;;;;;4955694;29;20479;-78
2022/03/09 06:29:05;;;;;;;11.60;5.27;;;-0.40;95.80;;;;;;4939922;29;20027;-79
2022/03/09 06:31:31;;;;;;;14.10;6.07;;;-0.40;95.60;;;;;;4939357;29;20031;-76
2022/03/09 06:33:57;;;;;;;14.70;6.47;;;-0.40;95.90;;;;;;4939062;29;20035;-76
2022/03/09 06:36:23;;;;;;;13.00;6.47;;;-0.30;96.00;;;;;;4954365;28;20046;-76
2022/03/09 06:38:48;;;;;;;15.40;6.73;;;-0.20;96.00;;;;;;4939022;29;20027;-76
2022/03/09 06:41:14;;;;;;;11.03;5.70;;;-0.10;95.60;;;;;;4938905;29;20023;-76
2022/03/09 06:43:40;;;;;;;14.00;6.27;;;-0.10;94.90;;;;;;4955740;29;20029;-76
2022/03/09 06:46:06;;;;;;;11.83;5.57;;;-0.10;94.50;;;;;;4956358;29;20106;-76
2022/03/09 06:48:31;;;;;;;14.13;5.77;;;0.00;94.20;;;;;;4938619;29;20031;-77
2022/03/09 06:50:57;;;;;;;14.73;5.60;;;-0.10;94.20;;;;;;4956268;29;20020;-77
2022/03/09 06:53:23;;;;;;;11.33;6.20;;;-0.10;94.60;;;;;;4938336;29;20023;-77
2022/03/09 06:55:48;;;;;;;15.00;5.50;;;0.00;94.50;;;;;;4938323;29;20615;-78
2022/03/09 06:58:14;;;;;;;14.63;6.47;;;0.10;94.80;;;;;;4938287;29;20082;-78
2022/03/09 07:00:42;;;;;;;16.20;5.40;;;0.10;94.90;;;;;;4938208;29;20066;-79
2022/03/09 07:03:08;;;;;;;14.30;5.97;;;0.00;94.40;;;;;;4938556;29;20028;-78
2022/03/09 07:05:33;;;;;;;12.07;5.77;;;0.10;94.50;;;;;;4939255;29;20038;-78
2022/03/09 07:08:00;;;;;;;15.63;6.17;;;0.10;94.30;;;;;;4938869;29;20054;-79
2022/03/09 07:10:26;;;;;;;13.87;5.83;;;0.00;94.30;;;;;;4955681;29;20030;-79
2022/03/09 07:12:51;;;;;;;12.53;5.77;;;0.00;94.60;;;;;;4938660;29;20024;-80
2022/03/09 07:15:17;;;;;;;13.40;6.07;;;0.10;95.10;;;;;;4937544;29;20385;-79
2022/03/09 07:17:45;;;;;;;15.43;6.47;;;0.20;94.90;;;;;;4937498;29;20035;-79
2022/03/09 07:20:11;;;;;;;13.73;6.10;;;0.20;95.60;;;;;;4937966;29;20038;-80
2022/03/09 07:22:37;;;;;;;13.00;6.37;;;0.30;95.10;;;;;;4937610;29;20239;-79
2022/03/09 07:25:03;;;;;;;14.70;6.60;;;0.30;94.70;;;;;;4938258;29;20027;-79
2022/03/09 07:27:29;;;;;;;15.67;6.30;;;0.40;94.20;;;;;;4937483;29;20054;-79
2022/03/09 07:29:54;;;;;;;13.50;6.13;;;0.40;93.90;;;;;;4937785;29;20030;-79
2022/03/09 07:32:23;;;;;;;18.20;6.17;;;0.40;93.50;;;;;;4938165;29;20118;-79
2022/03/09 07:34:48;;;;;;;13.60;6.40;;;0.50;93.30;;;;;;4955612;29;20444;-79
2022/03/09 07:37:14;;;;;;;13.83;6.67;;;0.50;92.90;;;;;;4954874;29;20058;-78
2022/03/09 07:39:40;;;;;;;15.00;5.97;;;0.60;92.50;;;;;;4937627;29;20034;-78
2022/03/09 07:42:06;;;;;;;13.43;6.47;;;0.70;92.80;;;;;;4938379;29;20122;-78
2022/03/09 07:44:31;;;;;;;12.47;6.20;;;0.80;92.60;;;;;;4954771;29;20525;-78
2022/03/09 07:46:57;;;;;;;17.17;6.20;;;0.80;92.50;;;;;;4937243;29;20050;-78
2022/03/09 07:49:23;;;;;;;13.57;6.27;;;0.90;93.10;;;;;;4937272;29;20086;-78
2022/03/09 07:51:49;;;;;;;12.23;6.03;;;1.00;93.00;;;;;;4937934;29;20027;-78
2022/03/09 07:54:16;;;;;;;13.03;5.63;;;1.00;92.30;;;;;;4955569;29;20508;-78
2022/03/09 07:56:42;;;;;;;12.67;6.53;;;1.10;92.20;;;;;;4937389;29;20031;-78
2022/03/09 07:59:08;;;;;;;13.43;6.73;;;1.20;92.40;;;;;;4937942;29;20453;-78
2022/03/09 08:01:34;;;;;;;13.70;6.33;;;1.30;91.90;;;;;;4937623;29;20051;-78
2022/03/09 08:04:00;;;;;;;11.93;5.50;;;1.40;91.50;;;;;;4938137;29;20090;-77
2022/03/09 08:06:26;;;;;;;12.90;5.80;;;1.50;91.40;;;;;;4959672;28;20072;-77
2022/03/09 08:08:52;;;;;;;15.17;6.20;;;1.60;91.60;;;;;;4954698;29;20050;-77
2022/03/09 08:11:17;;;;;;;13.10;6.43;;;1.70;91.30;;;;;;4938386;29;20361;-77
2022/03/09 08:13:43;;;;;;;11.60;5.73;;;1.80;91.70;;;;;;4954366;29;20441;-77
2022/03/09 08:16:09;;;;;;;16.07;6.23;;;1.90;91.40;;;;;;4937553;29;20413;-77
2022/03/09 08:18:34;;;;;;;12.67;6.07;;;1.90;90.50;;;;;;4936690;29;20125;-77
2022/03/09 08:21:00;;;;;;;12.60;5.83;;;1.90;90.50;;;;;;4938045;29;20461;-77
2022/03/09 08:23:26;;;;;;;11.47;5.83;;;2.00;89.30;;;;;;4937764;29;20082;-78
2022/03/09 08:25:52;;;;;;;14.40;5.67;;;2.10;88.00;;;;;;4937791;29;20035;-77
2022/03/09 08:28:19;;;;;;;13.47;5.70;;;2.10;86.00;;;;;;4937684;29;20027;-77
2022/03/09 08:30:45;;;;;;;12.33;6.20;;;2.10;85.50;;;;;;4937501;29;20468;-77
2022/03/09 08:33:11;;;;;;;11.60;5.37;;;2.30;84.90;;;;;;4937713;29;20046;-78
2022/03/09 08:35:37;;;;;;;10.03;5.33;;;2.30;82.30;;;;;;4953683;29;20099;-78
2022/03/09 08:38:03;;;;;;;10.83;5.20;;;2.40;80.60;;;;;;4953668;29;20031;-78
2022/03/09 08:40:29;;;;;;;13.87;5.87;;;2.50;81.00;;;;;;4936398;29;20039;-76
2022/03/09 08:42:54;;;;;;;11.57;5.77;;;2.50;80.80;;;;;;4937235;29;20031;-75
2022/03/09 08:45:20;;;;;;;12.50;5.27;;;2.50;80.40;;;;;;4929172;29;20031;-76
2022/03/09 08:47:46;;;;;;;11.90;6.10;;;2.50;79.50;;;;;;4934401;29;20111;-76
2022/03/09 08:50:11;;;;;;;11.00;5.13;;;2.60;80.20;;;;;;4917874;29;20389;-75
2022/03/09 08:52:37;;;;;;;13.60;5.80;;;2.60;79.70;;;;;;4917046;29;20039;-75
2022/03/09 08:55:04;;;;;;;12.53;5.63;;;2.60;79.20;;;;;;4935367;29;20036;-75
2022/03/09 08:57:29;;;;;;;12.53;5.73;;;2.70;78.20;;;;;;4917033;29;20060;-77
2022/03/09 08:59:57;;;;;;;10.97;5.83;;;2.70;77.60;;;;;;4935188;29;20122;-78
2022/03/09 09:02:26;;;;;;;14.60;5.80;;;2.80;77.10;;;;;;4921069;29;20544;-78
2022/03/09 09:04:51;;;;;;;15.33;6.13;;;2.90;76.60;;;;;;4945340;29;20039;-79
2022/03/09 09:07:17;;;;;;;14.73;6.17;;;3.00;75.90;;;;;;4937964;29;20027;-78
2022/03/09 09:09:43;;;;;;;11.50;6.33;;;3.00;76.80;;;;;;4920656;29;20688;-78
2022/03/09 09:12:10;;;;;;;12.23;5.87;;;3.00;77.00;;;;;;4921211;29;20114;-79
2022/03/09 09:14:36;;;;;;;15.17;6.73;;;3.00;76.60;;;;;;4937043;29;20066;-78
2022/03/09 09:17:03;;;;;;;11.40;6.00;;;3.10;77.80;;;;;;4937926;29;20473;-79
2022/03/09 09:19:29;;;;;;;12.93;6.03;;;3.20;77.00;;;;;;4920338;29;20031;-79
2022/03/09 09:21:54;;;;;;;14.20;6.20;;;3.40;77.90;;;;;;4934579;29;20039;-79
2022/03/09 09:24:20;;;;;;;13.67;6.33;;;3.40;76.80;;;;;;4957592;29;20027;-78
2022/03/09 09:26:46;;;;;;;12.57;6.10;;;3.40;76.50;;;;;;4939434;29;20035;-80
2022/03/09 09:29:11;;;;;;;15.63;7.00;;;3.30;74.90;;;;;;4940279;29;20031;-81
2022/03/09 09:31:37;;;;;;;14.37;6.80;;;3.40;73.30;;;;;;4944492;29;20078;-79
2022/03/09 09:34:03;;;;;;;12.93;6.83;;;3.50;73.20;;;;;;4920786;29;20032;-79
2022/03/09 09:36:29;;;;;;;17.00;7.07;;;3.50;72.40;;;;;;4920746;29;20036;-79
2022/03/09 09:38:56;;;;;;;17.27;6.50;;;3.50;71.70;;;;;;4921238;29;20027;-79
2022/03/09 09:41:25;;;;;;;17.47;7.13;;;3.50;70.40;;;;;;4931551;29;20035;-79
2022/03/09 09:43:51;;;;;;;15.43;6.93;;;3.60;71.10;;;;;;4939526;29;20038;-78
2022/03/09 09:46:17;;;;;;;14.27;6.20;;;3.80;70.40;;;;;;4938851;29;20035;-79
2022/03/09 09:48:46;;;;;;;11.80;6.40;;;3.80;69.00;;;;;;4938869;29;20036;-78
2022/03/09 09:51:12;;;;;;;14.60;6.23;;;3.90;68.50;;;;;;4956798;28;20477;-78
2022/03/09 09:53:46;;;;;;;17.10;7.00;;;3.90;68.50;;;;;;4938492;29;20114;-78
2022/03/09 09:56:13;;;;;;;17.73;7.07;;;3.90;68.80;;;;;;4956460;29;20469;-78
2022/03/09 09:58:44;;;;;;;13.13;6.33;;;4.00;69.60;;;;;;4938708;29;20038;-77
2022/03/09 10:01:12;;;;;;;15.03;7.33;;;4.00;69.90;;;;;;4956678;29;20027;-79
2022/03/09 10:03:38;;;;;;;18.50;7.77;;;4.10;69.80;;;;;;4939400;29;20110;-79
2022/03/09 10:06:04;;;;;;;13.70;7.53;;;4.20;69.70;;;;;;4957237;29;20114;-80
2022/03/09 10:08:29;;;;;;;15.27;6.87;;;4.20;70.00;;;;;;4939571;29;20023;-79
2022/03/09 10:10:56;;;;;;;14.33;7.20;;;4.30;70.60;;;;;;4937915;29;20086;-77
2022/03/09 10:13:27;;;;;;;14.47;6.77;;;4.40;69.10;;;;;;4948755;29;20020;-77
2022/03/09 10:16:13;;;;;;;12.75;6.90;;;4.40;67.90;;;;;;4946960;28;20051;-77
2022/03/09 10:18:45;;;;;;;12.80;6.70;;;4.50;66.80;;;;;;4929060;29;20118;-77
2022/03/09 10:21:40;;;;;;;10.70;6.00;;;4.60;67.60;;;;;;4924973;29;20079;-77
2022/03/09 10:24:09;;;;;;;15.10;6.53;;;4.70;67.80;;;;;;4947662;29;20035;-78
2022/03/09 10:26:34;;;;;;;15.20;6.27;;;4.80;68.50;;;;;;4929703;29;20495;-78
2022/03/09 10:29:11;;;;;;;16.57;7.13;;;4.90;66.60;;;;;;4928167;29;20103;-78
2022/03/09 10:31:41;;;;;;;14.37;6.73;;;5.00;65.60;;;;;;4929127;29;20666;-78
2022/03/09 10:34:16;;;;;;;19.33;9.27;;;4.90;65.30;;;;;;4929624;29;20070;-78
2022/03/09 10:36:58;;;;;;;12.50;6.97;;;5.00;78.30;;;;;;4929450;29;20027;-78
2022/03/09 10:39:37;;;;;;;13.00;6.73;;;4.90;81.00;;;;;;4945737;29;20043;-77
2022/03/09 10:42:04;;;;;;;13.87;6.50;;;5.00;75.50;;;;;;4929914;29;20020;-77
2022/03/09 10:44:42;;;;;;;14.67;6.53;;;5.10;77.60;;;;;;4924640;29;20054;-78
2022/03/09 10:47:08;;;;;;;15.33;6.90;;;5.20;80.30;;;;;;4930460;29;20031;-78
2022/03/09 10:49:34;;;;;;;11.23;5.97;;;5.20;79.80;;;;;;4927493;29;20575;-77
2022/03/09 10:52:00;;;;;;;13.07;6.47;;;5.30;74.90;;;;;;4933018;29;20027;-77
2022/03/09 10:54:29;;;;;;;14.80;6.37;;;5.40;71.20;;;;;;4925152;29;20123;-78
2022/03/09 10:57:10;;;;;;;16.13;6.47;;;5.50;71.90;;;;;;4932768;29;20453;-77
2022/03/09 10:59:47;;;;;;;13.83;6.40;;;5.60;70.50;;;;;;4929023;29;20023;-78
2022/03/09 11:02:16;;;;;;;16.57;7.17;;;5.70;76.20;;;;;;4927843;29;20449;-78
2022/03/09 11:04:41;;;;;;;16.17;6.77;;;5.70;73.20;;;;;;4927138;29;20027;-78
2022/03/09 11:07:09;;;;;;;14.17;6.47;;;5.70;74.40;;;;;;4922130;29;20031;-79
2022/03/09 11:09:37;;;;;;;13.33;6.53;;;5.70;69.30;;;;;;4918766;29;20065;-80
2022/03/09 11:12:03;;;;;;;15.53;6.47;;;5.80;71.40;;;;;;4919891;29;20023;-80
2022/03/09 11:14:29;;;;;;;14.83;6.67;;;5.70;72.90;;;;;;4920138;29;20119;-79
2022/03/09 11:17:00;;;;;;;12.10;6.27;;;5.70;71.80;;;;;;4936687;29;20075;-79
2022/03/09 11:19:27;;;;;;;13.50;6.40;;;5.90;69.70;;;;;;4920199;29;20028;-77
2022/03/09 11:21:53;;;;;;;11.13;6.23;;;6.10;65.30;;;;;;4954313;28;20024;-76
2022/03/09 11:24:20;;;;;;;12.53;6.60;;;6.20;66.10;;;;;;4937495;29;20027;-77
2022/03/09 11:26:55;;;;;;;14.57;6.13;;;6.30;65.60;;;;;;4937528;29;20055;-76
2022/03/09 11:29:33;;;;;;;15.07;6.63;;;6.40;67.70;;;;;;4943904;29;20023;-74
2022/03/09 11:31:59;;;;;;;12.07;6.27;;;6.50;68.20;;;;;;4936882;29;20027;-74
2022/03/09 11:34:35;;;;;;;13.87;6.00;;;6.60;64.70;;;;;;4937038;29;20023;-74
2022/03/09 11:37:06;;;;;;;12.50;6.10;;;6.60;63.00;;;;;;4954460;29;20027;-77
2022/03/09 11:39:32;;;;;;;12.40;6.47;;;6.60;59.50;;;;;;4930610;29;20028;-78
2022/03/09 11:42:19;;;;;;;14.17;6.20;;;6.80;58.90;;;;;;4936210;29;20111;-77
2022/03/09 11:44:46;;;;;;;14.73;6.23;;;6.80;57.40;;;;;;4935190;29;20027;-77
2022/03/09 11:47:12;;;;;;;11.57;6.70;;;6.90;57.00;;;;;;4919212;29;20035;-77
2022/03/09 11:49:45;;;;;;;12.77;6.40;;;6.90;56.30;;;;;;4935526;29;20019;-77
2022/03/09 11:52:14;;;;;;;11.90;6.43;;;6.90;56.40;;;;;;4918412;29;20059;-77
2022/03/09 11:54:58;;;;;;;15.20;7.27;;;7.00;56.70;;;;;;4935046;29;20031;-77
2022/03/09 11:57:44;;;;;;;16.40;7.50;;;6.90;56.40;;;;;;4918940;29;20038;-77
2022/03/09 12:00:12;;;;;;;13.90;6.73;;;7.00;56.20;;;;;;4918665;29;20114;-77
2022/03/09 12:02:47;;;;;;;14.80;7.03;;;7.10;55.50;;;;;;4917915;29;20114;-77
2022/03/09 12:05:37;;;;;;;15.53;8.07;;;7.20;55.60;;;;;;4932029;29;20041;-77
2022/03/09 12:08:11;;;;;;;15.87;7.30;;;7.30;55.80;;;;;;4926080;29;20380;-77
2022/03/09 12:10:50;;;;;;;14.27;7.10;;;7.50;55.40;;;;;;4954233;29;20023;-77
2022/03/09 12:13:44;;;;;;;15.73;8.03;;;7.60;54.20;;;;;;4937721;29;20028;-77
2022/03/09 12:16:22;;;;;;;16.67;7.63;;;7.80;52.50;;;;;;4936837;29;20094;-76
2022/03/09 12:19:04;;;;;;;17.10;8.02;;;8.00;52.50;;;;;;4937133;29;20151;-77
2022/03/09 12:21:35;;;;;;;18.13;7.90;;;8.20;52.50;;;;;;4933910;29;20035;-77
2022/03/09 12:24:04;;;;;;;16.75;8.55;;;8.30;52.60;;;;;;4943215;29;20036;-77
2022/03/09 12:26:47;;;;;;;16.40;8.27;;;8.60;52.50;;;;;;4919013;29;20090;-79
2022/03/09 12:29:21;;;;;;;18.33;8.30;;;8.80;52.50;;;;;;4918945;29;20023;-79
2022/03/09 12:32:09;;;;;;;19.83;8.77;;;9.00;51.80;;;;;;4918125;29;20020;-79
2022/03/09 12:34:37;;;;;;;19.95;8.95;;;9.20;51.20;;;;;;4925892;29;20031;-78
2022/03/09 12:37:12;;;;;;;20.83;10.57;;;9.50;51.00;;;;;;4941008;29;20523;-78
2022/03/09 12:39:38;;;;;;;18.60;9.50;;;9.80;50.10;;;;;;4957389;29;20030;-75
2022/03/09 12:42:05;;;;;;;20.40;9.52;;;10.30;47.30;;;;;;4957763;29;20128;-75
2022/03/09 12:44:33;;;;;;;17.98;8.90;;;10.60;47.10;;;;;;4957688;29;20046;-76
2022/03/09 12:47:03;;;;;;;19.25;8.80;;;10.90;46.60;;;;;;4941331;29;20058;-76
2022/03/09 12:49:43;;;;;;;17.40;8.52;;;11.10;46.00;;;;;;4940520;29;20023;-76